Hamshire, Texas
Current Conditions -  °F | °C
As of 9:55 AM on Thursday 23 Oct 2014 (Local Time) from KBMT Reporting Station
Clear Clear  
Wind Chill: 65°   Ceiling: Unl
Heat Index: 65°   Visibility: 10mi
Dew Point: 52°   Wind: 0mph
Humidity: 64%   Direction: NA
Pressure: 30.15"   Gusts: NA
Location:  29.86°N, 94.31°W
Report Text: KBMT 231455Z AUTO 00000KT 10SM CLR 18/11 A3015 RMK AO2 T01820112
Loading
Personal Weather Stations






























Interactive Weather Map
Tropical Storm Tracking
New forecast layout! Learn more

10-Day Weather Forecast

Advertisements
Track Severe Weather on mobile